createdAt,value
2022-12-24T00:01:22.956Z,12.98
2022-12-24T00:03:51.185Z,12.13
2022-12-24T00:06:21.381Z,12.63
2022-12-24T00:08:51.116Z,13.60
2022-12-24T00:11:19.883Z,13.27
2022-12-24T00:13:48.319Z,12.35
2022-12-24T00:16:16.445Z,12.65
2022-12-24T00:18:46.540Z,12.15
2022-12-24T00:21:15.996Z,12.27
2022-12-24T00:23:44.392Z,11.93
2022-12-24T00:26:14.476Z,12.70
2022-12-24T00:28:42.753Z,12.32
2022-12-24T00:31:12.625Z,12.45
2022-12-24T00:33:40.786Z,12.18
2022-12-24T00:36:09.861Z,12.15
2022-12-24T00:38:38.194Z,12.07
2022-12-24T00:41:24.613Z,12.30
2022-12-24T00:43:55.219Z,12.18
2022-12-24T00:46:23.697Z,12.40
2022-12-24T00:48:51.839Z,12.13
2022-12-24T00:51:20.728Z,12.35
2022-12-24T00:53:49.491Z,12.13
2022-12-24T00:56:17.558Z,13.10
2022-12-24T00:58:45.824Z,12.30
2022-12-24T01:01:15.924Z,11.88
2022-12-24T01:03:44.205Z,11.40
2022-12-24T01:06:12.944Z,12.35
2022-12-24T01:08:41.105Z,11.82
2022-12-24T01:11:11.021Z,12.98
2022-12-24T01:13:39.464Z,12.35
2022-12-24T01:16:18.010Z,12.98
2022-12-24T01:18:46.221Z,13.15
2022-12-24T01:21:14.313Z,12.80
2022-12-24T01:23:42.480Z,12.65
2022-12-24T01:26:12.611Z,12.30
2022-12-24T01:28:41.276Z,12.52
2022-12-24T01:31:13.118Z,12.95
2022-12-24T01:33:42.871Z,13.75
2022-12-24T01:36:11.776Z,13.07
2022-12-24T01:38:39.941Z,14.18
2022-12-24T01:41:28.063Z,13.07
2022-12-24T01:43:56.098Z,13.07
2022-12-24T01:46:30.036Z,12.45
2022-12-24T01:49:02.474Z,14.23
2022-12-24T01:51:36.843Z,13.55
2022-12-24T01:54:07.779Z,14.80
2022-12-24T01:56:38.272Z,13.77
2022-12-24T01:59:09.436Z,14.10
2022-12-24T02:01:37.917Z,14.68
2022-12-24T02:04:18.000Z,13.88
2022-12-24T02:06:46.390Z,14.35
2022-12-24T02:09:15.303Z,13.85
2022-12-24T02:11:44.967Z,14.10
2022-12-24T02:14:14.362Z,13.85
2022-12-24T02:16:50.121Z,12.90
2022-12-24T02:20:01.345Z,13.65
2022-12-24T02:22:42.761Z,13.40
2022-12-24T02:25:31.942Z,13.95
2022-12-24T02:28:07.720Z,14.40
2022-12-24T02:30:42.682Z,12.65
2022-12-24T02:33:19.477Z,13.90
2022-12-24T02:35:54.423Z,14.65
2022-12-24T02:38:28.417Z,13.05
2022-12-24T02:40:59.829Z,12.77
2022-12-24T02:43:32.495Z,12.75
2022-12-24T02:46:07.431Z,13.52
2022-12-24T02:48:37.905Z,12.80
2022-12-24T02:51:08.579Z,12.50
2022-12-24T02:53:37.607Z,12.65
2022-12-24T02:56:19.348Z,12.85
2022-12-24T02:59:01.471Z,13.25
2022-12-24T03:01:43.106Z,13.55
2022-12-24T03:04:39.453Z,13.70
2022-12-24T03:07:15.107Z,12.88
2022-12-24T03:10:01.235Z,13.63
2022-12-24T03:12:34.513Z,12.73
2022-12-24T03:15:04.488Z,12.45
2022-12-24T03:17:38.360Z,13.75
2022-12-24T03:20:09.417Z,12.93
2022-12-24T03:22:38.579Z,13.20
2022-12-24T03:25:07.266Z,13.52
2022-12-24T03:27:36.849Z,13.43
2022-12-24T03:30:09.184Z,14.23
2022-12-24T03:32:39.447Z,14.95
2022-12-24T03:35:09.691Z,15.45
2022-12-24T03:37:37.736Z,15.20
2022-12-24T03:40:06.862Z,15.05
2022-12-24T03:42:34.899Z,14.77
2022-12-24T03:45:02.981Z,15.32
2022-12-24T03:47:32.259Z,15.63
2022-12-24T03:50:01.892Z,14.57
2022-12-24T03:52:29.925Z,14.40
2022-12-24T03:54:57.984Z,14.15
2022-12-24T03:57:25.984Z,15.43
2022-12-24T03:59:54.033Z,16.48
2022-12-24T04:02:22.189Z,15.05
2022-12-24T04:04:50.320Z,15.55
2022-12-24T04:07:19.756Z,16.30
2022-12-24T04:09:47.792Z,17.15
2022-12-24T04:12:15.889Z,16.02
2022-12-24T04:14:43.962Z,17.23
2022-12-24T04:17:11.972Z,16.17
2022-12-24T04:19:40.016Z,17.27
2022-12-24T04:22:08.078Z,18.65
2022-12-24T04:24:37.462Z,17.20
2022-12-24T04:27:05.461Z,16.98
2022-12-24T04:29:33.495Z,18.27
2022-12-24T04:32:01.710Z,18.42
2022-12-24T04:34:29.862Z,18.25
2022-12-24T04:36:57.983Z,18.17
2022-12-24T04:39:26.093Z,18.55
2022-12-24T04:41:55.515Z,19.15
2022-12-24T04:44:23.575Z,18.75
2022-12-24T04:46:51.627Z,20.42
2022-12-24T04:49:19.663Z,18.80
2022-12-24T04:51:47.758Z,18.67
2022-12-24T04:54:15.876Z,18.45
2022-12-24T04:56:43.881Z,18.35
2022-12-24T04:59:13.269Z,18.92
2022-12-24T05:01:41.416Z,18.58
2022-12-24T05:04:11.273Z,17.98
2022-12-24T05:06:39.372Z,17.63
2022-12-24T05:09:07.450Z,17.63
2022-12-24T05:11:35.543Z,17.33
2022-12-24T05:14:03.649Z,17.65
2022-12-24T05:16:33.238Z,16.05
2022-12-24T05:19:01.271Z,17.10
2022-12-24T05:21:29.365Z,16.55
2022-12-24T05:24:15.316Z,15.95
2022-12-24T05:26:46.688Z,16.13
2022-12-24T05:29:14.751Z,15.25
2022-12-24T05:31:45.312Z,14.35
2022-12-24T05:34:14.251Z,13.73
2022-12-24T05:36:42.338Z,13.57
2022-12-24T05:39:15.998Z,13.60
2022-12-24T05:41:44.721Z,12.57
2022-12-24T05:44:12.794Z,12.60
2022-12-24T05:46:41.099Z,12.95
2022-12-24T05:49:10.661Z,11.75
2022-12-24T05:51:40.294Z,12.00
2022-12-24T05:54:09.360Z,11.15
2022-12-24T05:56:37.487Z,11.25
2022-12-24T05:59:05.544Z,9.65
2022-12-24T06:01:33.817Z,9.10
2022-12-24T06:04:01.902Z,9.27
2022-12-24T06:06:31.369Z,7.55
2022-12-24T06:08:59.647Z,7.32
2022-12-24T06:11:29.203Z,6.80
2022-12-24T06:13:57.688Z,6.15
2022-12-24T06:16:27.250Z,6.57
2022-12-24T06:18:55.547Z,6.25
2022-12-24T06:21:23.756Z,6.18
2022-12-24T06:23:53.521Z,6.55
2022-12-24T06:26:24.061Z,5.45
2022-12-24T06:28:53.059Z,5.43
2022-12-24T06:31:23.380Z,5.63
2022-12-24T06:33:52.310Z,5.90
2022-12-24T06:36:22.169Z,4.60
2022-12-24T06:38:52.311Z,5.38
2022-12-24T06:41:21.032Z,6.47
2022-12-24T06:43:50.750Z,7.18
2022-12-24T06:46:19.358Z,6.05
2022-12-24T06:48:48.477Z,5.43
2022-12-24T06:51:19.891Z,7.00
2022-12-24T06:53:50.531Z,7.00
2022-12-24T06:56:21.463Z,6.30
2022-12-24T06:58:50.222Z,5.75
2022-12-24T07:01:20.541Z,6.53
2022-12-24T07:03:48.964Z,6.53
2022-12-24T07:06:20.577Z,6.82
2022-12-24T07:08:48.637Z,7.40
2022-12-24T07:11:19.289Z,6.13
2022-12-24T07:13:47.693Z,7.95
2022-12-24T07:16:15.958Z,7.25
2022-12-24T07:18:44.410Z,7.93
2022-12-24T07:21:12.589Z,7.13
2022-12-24T07:23:40.643Z,7.30
2022-12-24T07:26:08.860Z,6.57
2022-12-24T07:28:38.262Z,7.22
2022-12-24T07:31:06.752Z,6.68
2022-12-24T07:33:34.814Z,7.13
2022-12-24T07:36:05.178Z,6.60
2022-12-24T07:38:34.259Z,6.38
2022-12-24T07:41:02.633Z,6.10
2022-12-24T07:43:30.666Z,5.82
2022-12-24T07:46:00.190Z,5.50
2022-12-24T07:48:31.846Z,6.35
2022-12-24T07:51:00.028Z,6.68
2022-12-24T07:53:29.776Z,6.15
2022-12-24T07:55:57.820Z,6.68
2022-12-24T07:58:26.180Z,5.80
2022-12-24T08:00:59.602Z,6.32
2022-12-24T08:03:28.451Z,6.18
2022-12-24T08:05:57.508Z,6.78
2022-12-24T08:08:25.925Z,5.93
2022-12-24T08:10:54.400Z,6.00
2022-12-24T08:13:22.469Z,6.32
2022-12-24T08:15:50.606Z,6.57
2022-12-24T08:18:20.056Z,6.13
2022-12-24T08:20:48.578Z,6.30
2022-12-24T08:23:16.615Z,6.13
2022-12-24T08:25:45.439Z,5.95
2022-12-24T08:28:13.887Z,6.05
2022-12-24T08:30:41.990Z,6.15
2022-12-24T08:33:10.123Z,6.45
2022-12-24T08:35:39.602Z,5.68
2022-12-24T08:38:07.786Z,7.18
2022-12-24T08:40:35.875Z,5.97
2022-12-24T08:43:03.904Z,6.30
2022-12-24T08:45:37.894Z,5.88
2022-12-24T08:48:08.803Z,5.68
2022-12-24T08:50:39.494Z,6.47
2022-12-24T08:53:09.236Z,6.75
2022-12-24T08:55:38.003Z,7.30
2022-12-24T08:58:06.616Z,6.30
2022-12-24T09:00:34.956Z,6.47
2022-12-24T09:03:03.030Z,7.13
2022-12-24T09:05:31.124Z,6.38
2022-12-24T09:07:59.264Z,7.05
2022-12-24T09:10:28.688Z,7.35
2022-12-24T09:12:56.931Z,6.45
2022-12-24T09:15:25.036Z,7.53
2022-12-24T09:17:53.053Z,6.63
2022-12-24T09:20:21.153Z,7.00
2022-12-24T09:22:49.209Z,6.13
2022-12-24T09:25:17.342Z,5.80
2022-12-24T09:27:46.894Z,7.13
2022-12-24T09:30:16.174Z,6.82
2022-12-24T09:32:44.246Z,7.07
2022-12-24T09:35:12.283Z,7.00
2022-12-24T09:37:40.314Z,6.72
2022-12-24T09:40:17.034Z,7.05
2022-12-24T09:42:52.313Z,7.13
2022-12-24T09:45:26.529Z,5.57
2022-12-24T09:47:56.651Z,6.70
2022-12-24T09:50:40.583Z,6.47
2022-12-24T09:53:17.129Z,6.18
2022-12-24T09:55:48.932Z,5.93
2022-12-24T09:58:24.910Z,6.32
2022-12-24T10:00:53.538Z,6.63
2022-12-24T10:03:21.747Z,6.55
2022-12-24T10:06:08.040Z,6.43
2022-12-24T10:08:45.229Z,5.70
2022-12-24T10:11:20.531Z,5.70
2022-12-24T10:14:04.472Z,5.82
2022-12-24T10:16:42.741Z,6.80
2022-12-24T10:19:18.493Z,6.95
2022-12-24T10:22:00.050Z,7.13
2022-12-24T10:24:34.693Z,7.30
2022-12-24T10:27:06.919Z,6.85
2022-12-24T10:29:41.187Z,6.72
2022-12-24T10:32:19.049Z,7.53
2022-12-24T10:34:51.059Z,10.18
2022-12-24T10:37:23.612Z,7.78
2022-12-24T10:39:51.919Z,6.22
2022-12-24T10:42:21.487Z,7.90
2022-12-24T10:44:56.022Z,6.70
2022-12-24T10:47:25.455Z,6.75
2022-12-24T10:50:01.769Z,5.75
2022-12-24T10:52:35.206Z,6.20
2022-12-24T10:55:11.138Z,6.38
2022-12-24T10:57:40.128Z,6.78
2022-12-24T11:00:21.446Z,5.95
2022-12-24T11:02:51.081Z,6.18
2022-12-24T11:05:31.888Z,6.50
2022-12-24T11:08:03.763Z,5.57
2022-12-24T11:10:32.351Z,6.57
2022-12-24T11:13:35.666Z,6.55
2022-12-24T11:15:52.755Z,6.30
2022-12-24T11:18:20.886Z,5.60
2022-12-24T11:20:53.684Z,5.93
2022-12-24T11:23:23.920Z,6.07
2022-12-24T11:25:53.022Z,6.60
2022-12-24T11:28:23.797Z,6.53
2022-12-24T11:31:05.987Z,6.88
2022-12-24T11:33:48.147Z,6.18
2022-12-24T11:36:18.373Z,6.07
2022-12-24T11:38:54.365Z,5.65
2022-12-24T11:41:23.634Z,6.55
2022-12-24T11:43:58.728Z,7.30
2022-12-24T11:46:43.463Z,6.53
2022-12-24T11:49:18.633Z,5.80
2022-12-24T11:52:19.061Z,6.57
2022-12-24T11:55:15.638Z,6.50
2022-12-24T11:57:51.594Z,6.10
2022-12-24T12:00:19.867Z,4.55
2022-12-24T12:02:52.427Z,5.15
2022-12-24T12:05:23.699Z,4.03
2022-12-24T12:07:54.256Z,4.18
2022-12-24T12:10:25.074Z,4.63
2022-12-24T12:13:00.649Z,4.05
2022-12-24T12:15:34.123Z,4.03
2022-12-24T12:18:08.706Z,4.40
2022-12-24T12:20:40.973Z,4.22
2022-12-24T12:23:16.505Z,4.30
2022-12-24T12:25:48.714Z,4.28
2022-12-24T12:28:22.506Z,4.32
2022-12-24T12:31:01.837Z,4.93
2022-12-24T12:33:38.893Z,4.32
2022-12-24T12:36:09.423Z,4.32
2022-12-24T12:38:37.500Z,4.75
2022-12-24T12:41:18.892Z,5.20
2022-12-24T12:44:04.865Z,4.38
2022-12-24T12:46:41.697Z,4.43
2022-12-24T12:49:28.749Z,4.05
2022-12-24T12:52:03.656Z,4.50
2022-12-24T12:54:47.199Z,4.25
2022-12-24T12:57:19.889Z,4.03
2022-12-24T12:59:52.876Z,4.30
2022-12-24T13:02:42.193Z,4.43
2022-12-24T13:05:36.692Z,4.07
2022-12-24T13:08:20.508Z,3.40
2022-12-24T13:11:05.353Z,4.80
2022-12-24T13:14:06.873Z,4.97
2022-12-24T13:17:15.868Z,4.30
2022-12-24T13:19:59.298Z,3.97
2022-12-24T13:22:29.114Z,4.20
2022-12-24T13:24:57.873Z,3.97
2022-12-24T13:27:28.604Z,4.18
2022-12-24T13:30:02.205Z,4.95
2022-12-24T13:32:50.340Z,4.43
2022-12-24T13:35:37.174Z,4.00
2022-12-24T13:38:33.542Z,4.20
2022-12-24T13:41:41.856Z,4.10
2022-12-24T13:44:19.208Z,4.43
2022-12-24T13:46:58.024Z,4.90
2022-12-24T13:49:34.353Z,4.80
2022-12-24T13:52:22.677Z,5.35
2022-12-24T13:55:18.109Z,4.32
2022-12-24T13:57:57.789Z,4.55
2022-12-24T14:00:43.310Z,4.18
2022-12-24T14:03:33.027Z,4.57
2022-12-24T14:06:03.998Z,4.35
2022-12-24T14:08:37.805Z,4.53
2022-12-24T14:11:13.537Z,4.18
2022-12-24T14:14:15.127Z,4.65
2022-12-24T14:16:47.739Z,5.25
2022-12-24T14:19:21.006Z,5.30
2022-12-24T14:21:55.953Z,4.85
2022-12-24T14:24:27.216Z,5.65
2022-12-24T14:27:01.932Z,6.80
2022-12-24T14:29:33.119Z,5.35
2022-12-24T14:32:04.674Z,5.60
2022-12-24T14:34:33.036Z,4.60
2022-12-24T14:37:04.588Z,4.88
2022-12-24T14:39:35.632Z,5.20
2022-12-24T14:42:21.236Z,6.65
2022-12-24T14:44:58.706Z,7.95
2022-12-24T14:47:35.769Z,6.75
2022-12-24T14:50:33.038Z,6.50
2022-12-24T14:53:13.541Z,5.70
2022-12-24T14:55:49.266Z,6.20
2022-12-24T14:58:28.175Z,7.78
2022-12-24T15:00:58.236Z,5.63
2022-12-24T15:03:29.491Z,5.53
2022-12-24T15:06:00.482Z,4.57
2022-12-24T15:08:37.784Z,4.78
2022-12-24T15:11:08.263Z,6.05
2022-12-24T15:13:40.684Z,4.93
2022-12-24T15:16:11.383Z,4.10
2022-12-24T15:18:43.123Z,4.55
2022-12-24T15:21:18.343Z,4.15
2022-12-24T15:23:49.702Z,4.75
2022-12-24T15:26:24.154Z,4.28
2022-12-24T15:29:02.393Z,3.80
2022-12-24T15:31:32.357Z,3.67
2022-12-24T15:34:00.938Z,4.15
2022-12-24T15:36:32.494Z,4.40
2022-12-24T15:39:03.273Z,4.03
2022-12-24T15:41:59.197Z,4.07
2022-12-24T15:44:29.327Z,4.43
2022-12-24T15:47:00.307Z,4.93
2022-12-24T15:49:29.536Z,4.13
2022-12-24T15:52:04.739Z,4.70
2022-12-24T15:54:33.645Z,3.88
2022-12-24T15:57:14.199Z,3.53
2022-12-24T15:59:44.004Z,3.63
2022-12-24T16:02:35.062Z,4.97
2022-12-24T16:05:31.254Z,3.70
2022-12-24T16:08:23.867Z,3.38
2022-12-24T16:10:54.569Z,3.30
2022-12-24T16:13:24.827Z,3.72
2022-12-24T16:15:57.315Z,3.72
2022-12-24T16:18:27.558Z,4.13
2022-12-24T16:20:57.697Z,4.30
2022-12-24T16:23:38.304Z,3.63
2022-12-24T16:26:06.604Z,3.65
2022-12-24T16:28:34.677Z,3.72
2022-12-24T16:31:04.362Z,4.45
2022-12-24T16:33:32.675Z,4.45
2022-12-24T16:36:00.891Z,3.47
2022-12-24T16:38:49.023Z,3.65
2022-12-24T16:41:17.092Z,4.18
2022-12-24T16:43:50.094Z,3.50
2022-12-24T16:46:20.001Z,3.42
2022-12-24T16:48:49.634Z,3.63
2022-12-24T16:51:17.651Z,4.03
2022-12-24T16:53:45.681Z,4.35
2022-12-24T16:56:13.718Z,3.50
2022-12-24T16:58:41.766Z,4.68
2022-12-24T17:01:10.864Z,6.50
2022-12-24T17:03:40.456Z,4.22
2022-12-24T17:06:09.394Z,4.40
2022-12-24T17:08:37.648Z,4.47
2022-12-24T17:11:05.859Z,5.47
2022-12-24T17:13:33.838Z,4.47
2022-12-24T17:16:03.020Z,5.72
2022-12-24T17:18:31.087Z,5.22
2022-12-24T17:21:01.940Z,6.32
2022-12-24T17:23:30.359Z,6.50
2022-12-24T17:25:58.912Z,5.18
2022-12-24T17:28:26.948Z,5.35
2022-12-24T17:30:54.994Z,5.00
2022-12-24T17:33:23.070Z,4.53
2022-12-24T17:35:52.207Z,4.45
2022-12-24T17:38:21.629Z,4.22
2022-12-24T17:40:49.704Z,4.38
2022-12-24T17:43:17.912Z,4.40
2022-12-24T17:45:45.946Z,5.28
2022-12-24T17:48:13.962Z,5.00
2022-12-24T17:50:42.117Z,5.55
2022-12-24T17:53:10.175Z,5.30
2022-12-24T17:55:43.040Z,4.93
2022-12-24T17:58:11.590Z,5.03
2022-12-24T18:00:39.750Z,5.05
2022-12-24T18:03:07.860Z,6.28
2022-12-24T18:05:36.347Z,5.68
2022-12-24T18:08:04.678Z,4.63
2022-12-24T18:10:32.731Z,6.25
2022-12-24T18:13:02.177Z,5.90
2022-12-24T18:15:30.266Z,5.20
2022-12-24T18:17:59.341Z,5.10
2022-12-24T18:20:27.563Z,4.45
2022-12-24T18:22:55.616Z,5.50
2022-12-24T18:25:24.182Z,5.68
2022-12-24T18:27:52.420Z,4.97
2022-12-24T18:30:27.578Z,6.05
2022-12-24T18:32:56.254Z,5.85
2022-12-24T18:35:25.059Z,4.88
2022-12-24T18:37:53.446Z,5.32
2022-12-24T18:40:21.540Z,5.07
2022-12-24T18:42:49.673Z,5.05
2022-12-24T18:45:17.786Z,5.25
2022-12-24T18:47:47.175Z,5.78
2022-12-24T18:50:15.256Z,5.78
2022-12-24T18:52:43.286Z,4.78
2022-12-24T18:55:12.200Z,5.38
2022-12-24T18:57:40.233Z,5.55
2022-12-24T19:00:09.524Z,6.00
2022-12-24T19:02:37.643Z,5.90
2022-12-24T19:05:08.451Z,4.78
2022-12-24T19:07:36.511Z,6.07
2022-12-24T19:10:04.753Z,6.32
2022-12-24T19:12:32.852Z,6.10
2022-12-24T19:15:01.435Z,5.57
2022-12-24T19:17:29.850Z,6.85
2022-12-24T19:19:57.886Z,7.07
2022-12-24T19:22:28.623Z,7.53
2022-12-24T19:24:56.643Z,7.72
2022-12-24T19:27:24.677Z,6.30
2022-12-24T19:29:52.747Z,6.20
2022-12-24T19:32:20.828Z,6.45
2022-12-24T19:34:48.832Z,6.00
2022-12-24T19:37:16.902Z,6.10
2022-12-24T19:39:46.292Z,7.38
2022-12-24T19:42:14.339Z,7.40
2022-12-24T19:44:42.343Z,6.90
2022-12-24T19:47:10.369Z,6.53
2022-12-24T19:49:38.384Z,7.13
2022-12-24T19:52:06.457Z,7.03
2022-12-24T19:54:34.638Z,7.03
2022-12-24T19:57:04.023Z,7.40
2022-12-24T19:59:32.156Z,7.78
2022-12-24T20:02:00.346Z,7.47
2022-12-24T20:04:28.517Z,6.97
2022-12-24T20:07:00.503Z,6.75
2022-12-24T20:09:31.540Z,7.30
2022-12-24T20:11:59.618Z,6.70
2022-12-24T20:14:29.260Z,7.47
2022-12-24T20:16:57.497Z,7.05
2022-12-24T20:19:25.692Z,7.90
2022-12-24T20:21:53.842Z,8.13
2022-12-24T20:24:21.888Z,7.68
2022-12-24T20:26:49.953Z,6.97
2022-12-24T20:29:18.060Z,7.78
2022-12-24T20:31:47.560Z,7.22
2022-12-24T20:34:15.667Z,6.47
2022-12-24T20:36:44.046Z,7.82
2022-12-24T20:39:13.508Z,7.60
2022-12-24T20:41:41.581Z,6.75
2022-12-24T20:44:10.774Z,7.55
2022-12-24T20:46:38.975Z,7.10
2022-12-24T20:49:08.380Z,8.20
2022-12-24T20:51:36.396Z,9.40
2022-12-24T20:54:04.596Z,11.43
2022-12-24T20:56:32.800Z,20.05
2022-12-24T20:59:02.048Z,10.55
2022-12-24T21:01:30.729Z,9.45
2022-12-24T21:04:04.551Z,8.85
2022-12-24T21:06:35.026Z,15.95
2022-12-24T21:09:03.778Z,10.13
2022-12-24T21:11:49.091Z,11.02
2022-12-24T21:14:18.201Z,11.25
2022-12-24T21:16:47.096Z,12.48
2022-12-24T21:19:18.024Z,11.77
2022-12-24T21:21:48.110Z,12.07
2022-12-24T21:24:17.138Z,14.60
2022-12-24T21:26:45.206Z,12.43
2022-12-24T21:29:14.670Z,15.90
2022-12-24T21:31:44.007Z,34.03
2022-12-24T21:34:12.088Z,14.00
2022-12-24T21:36:40.136Z,26.73
2022-12-24T21:39:09.626Z,22.63
2022-12-24T21:41:37.644Z,17.98
2022-12-24T21:44:05.843Z,21.70
2022-12-24T21:46:33.998Z,15.00
2022-12-24T21:49:19.403Z,17.63
2022-12-24T21:51:48.960Z,17.65
2022-12-24T21:54:26.959Z,19.42
2022-12-24T21:57:14.311Z,16.30
2022-12-24T21:59:43.047Z,11.32
2022-12-24T22:02:12.312Z,10.77
2022-12-24T22:04:40.779Z,13.07
2022-12-24T22:07:26.624Z,13.52
2022-12-24T22:10:13.549Z,13.77
2022-12-24T22:12:41.615Z,13.70
2022-12-24T22:15:10.554Z,12.93
2022-12-24T22:17:38.592Z,12.52
2022-12-24T22:20:08.076Z,12.98
2022-12-24T22:22:36.119Z,13.18
2022-12-24T22:25:05.962Z,13.50
2022-12-24T22:27:34.052Z,12.77
2022-12-24T22:30:02.061Z,12.68
2022-12-24T22:32:30.108Z,12.30
2022-12-24T22:34:58.122Z,12.67
2022-12-24T22:37:26.224Z,14.10
2022-12-24T22:39:54.280Z,13.70
2022-12-24T22:42:23.720Z,14.43
2022-12-24T22:44:51.791Z,13.95
2022-12-24T22:47:20.007Z,14.00
2022-12-24T22:49:49.444Z,13.98
2022-12-24T22:52:17.788Z,13.47
2022-12-24T22:54:45.932Z,14.32
2022-12-24T22:57:13.935Z,12.87
2022-12-24T22:59:43.516Z,13.73
2022-12-24T23:02:12.083Z,13.20
2022-12-24T23:04:41.811Z,13.98
2022-12-24T23:07:12.027Z,14.32
2022-12-24T23:09:40.626Z,14.25
2022-12-24T23:12:09.311Z,14.70
2022-12-24T23:14:55.016Z,14.55
2022-12-24T23:17:24.409Z,13.80
2022-12-24T23:19:52.460Z,16.33
2022-12-24T23:22:20.472Z,15.00
2022-12-24T23:24:48.555Z,15.03
2022-12-24T23:27:16.648Z,14.97
2022-12-24T23:29:44.672Z,15.10
2022-12-24T23:32:12.753Z,15.40
2022-12-24T23:34:42.244Z,15.40
2022-12-24T23:37:10.276Z,16.05
2022-12-24T23:39:38.345Z,14.02
2022-12-24T23:42:06.450Z,14.83
2022-12-24T23:44:34.520Z,16.10
2022-12-24T23:47:02.714Z,17.00
2022-12-24T23:49:30.805Z,17.87
2022-12-24T23:52:00.191Z,16.52
2022-12-24T23:54:28.452Z,16.25
2022-12-24T23:56:56.517Z,18.10
2022-12-24T23:59:24.558Z,16.98
